Time;durP1;ratioP1;P1;durP2;ratioP2;P2;SDS_P1;SDS_P2;PMS_P1;PMS_P2;Temp;Humidity;BMP_temperature;BMP_pressure;BME280_temperature;BME280_humidity;BME280_pressure;Samples;Min_cycle;Max_cycle;Signal;HPM_P1;HPM_P2
2021/01/10 00:00:15;;;;;;;11.52;7.00;;;0.60;99.90;;;;;;5090691;28;20028;-70
2021/01/10 00:02:42;;;;;;;13.80;7.13;;;0.50;99.90;;;;;;5091416;28;20035;-69
2021/01/10 00:05:09;;;;;;;16.50;7.60;;;0.50;99.90;;;;;;5090539;28;20372;-69
2021/01/10 00:07:35;;;;;;;11.10;7.60;;;0.50;99.90;;;;;;5090743;28;20039;-69
2021/01/10 00:10:00;;;;;;;16.92;8.98;;;0.60;99.90;;;;;;5091215;28;20017;-69
2021/01/10 00:12:27;;;;;;;11.18;7.50;;;0.60;99.90;;;;;;5090460;28;20082;-69
2021/01/10 00:14:54;;;;;;;10.18;7.15;;;0.60;99.90;;;;;;5090727;28;20058;-69
2021/01/10 00:17:20;;;;;;;17.48;8.25;;;0.60;99.90;;;;;;5090383;28;20420;-69
2021/01/10 00:19:47;;;;;;;14.82;8.15;;;0.70;99.90;;;;;;5090562;28;20475;-69
2021/01/10 00:22:14;;;;;;;14.40;8.02;;;0.70;99.90;;;;;;5089640;28;20050;-70
2021/01/10 00:24:41;;;;;;;15.30;7.53;;;0.60;99.90;;;;;;5090962;28;20024;-69
2021/01/10 00:27:11;;;;;;;14.40;7.78;;;0.60;99.90;;;;;;5090582;28;20184;-70
2021/01/10 00:29:38;;;;;;;12.07;7.43;;;0.60;99.90;;;;;;5090035;28;20350;-69
2021/01/10 00:32:04;;;;;;;17.52;7.90;;;0.60;99.90;;;;;;5092518;28;20084;-69
2021/01/10 00:34:30;;;;;;;15.85;7.72;;;0.60;99.90;;;;;;5090325;28;20486;-69
2021/01/10 00:36:56;;;;;;;13.73;7.65;;;0.60;99.90;;;;;;5090899;28;20066;-69
2021/01/10 00:39:22;;;;;;;17.92;7.95;;;0.60;99.90;;;;;;5090023;28;20020;-70
2021/01/10 00:41:47;;;;;;;14.32;7.68;;;0.50;99.90;;;;;;5090383;28;20484;-68
2021/01/10 00:44:13;;;;;;;13.27;7.00;;;0.50;99.90;;;;;;5090498;28;20038;-69
2021/01/10 00:46:38;;;;;;;14.80;8.05;;;0.50;99.90;;;;;;5090851;28;20490;-69
2021/01/10 00:49:04;;;;;;;19.50;7.53;;;0.50;99.90;;;;;;5090400;28;20107;-69
2021/01/10 00:51:30;;;;;;;16.08;7.80;;;0.50;99.90;;;;;;5090760;28;20032;-69
2021/01/10 00:53:55;;;;;;;15.93;8.30;;;0.50;99.90;;;;;;5090854;28;20020;-69
2021/01/10 00:56:21;;;;;;;14.93;7.68;;;0.50;99.90;;;;;;5089926;28;20148;-68
2021/01/10 00:58:46;;;;;;;12.60;7.90;;;0.50;99.90;;;;;;5090399;28;20024;-69
2021/01/10 01:01:12;;;;;;;9.48;6.90;;;0.50;99.90;;;;;;5078283;28;20032;-70
2021/01/10 01:03:37;;;;;;;14.27;7.07;;;0.40;99.90;;;;;;5073333;28;20024;-69
2021/01/10 01:06:11;;;;;;;11.20;7.25;;;0.50;99.90;;;;;;5090835;28;20058;-70
2021/01/10 01:08:36;;;;;;;16.13;7.57;;;0.40;99.90;;;;;;5091863;28;20044;-69
2021/01/10 01:11:02;;;;;;;11.43;6.35;;;0.40;99.90;;;;;;5094805;28;20047;-69
2021/01/10 01:13:27;;;;;;;18.38;7.13;;;0.50;99.90;;;;;;5091319;28;20125;-69
2021/01/10 01:15:53;;;;;;;17.73;8.50;;;0.60;99.90;;;;;;5090361;28;20063;-69
2021/01/10 01:18:18;;;;;;;15.57;7.35;;;0.60;99.90;;;;;;5089691;28;20020;-68
2021/01/10 01:20:45;;;;;;;13.82;6.57;;;0.70;99.90;;;;;;5090178;28;20108;-69
2021/01/10 01:23:11;;;;;;;15.88;7.57;;;0.80;99.90;;;;;;5090457;28;20525;-68
2021/01/10 01:25:36;;;;;;;14.75;7.30;;;0.90;99.90;;;;;;5090209;28;20107;-69
2021/01/10 01:28:03;;;;;;;16.85;7.35;;;1.00;99.90;;;;;;5091048;28;20028;-69
2021/01/10 01:30:29;;;;;;;13.88;6.97;;;1.00;99.90;;;;;;5090898;28;20044;-69
2021/01/10 01:32:54;;;;;;;11.90;6.40;;;1.10;99.90;;;;;;5091976;28;20036;-69
2021/01/10 01:35:20;;;;;;;11.40;6.85;;;1.10;99.90;;;;;;5093581;28;20052;-69
2021/01/10 01:37:45;;;;;;;18.27;7.22;;;1.20;99.90;;;;;;5093222;28;20016;-69
2021/01/10 01:40:11;;;;;;;11.10;6.63;;;1.20;99.90;;;;;;5087010;28;20020;-69
2021/01/10 01:42:37;;;;;;;12.57;6.95;;;1.20;99.90;;;;;;5085675;28;20028;-69
2021/01/10 01:45:08;;;;;;;12.80;6.70;;;1.30;99.90;;;;;;5093163;28;20030;-69
2021/01/10 01:47:35;;;;;;;13.00;5.65;;;1.30;99.90;;;;;;5093587;28;20093;-70
2021/01/10 01:50:03;;;;;;;16.33;5.88;;;1.40;99.90;;;;;;5093355;28;20054;-70
2021/01/10 01:52:28;;;;;;;10.52;5.75;;;1.40;99.90;;;;;;5088638;28;20495;-70
2021/01/10 01:54:54;;;;;;;11.20;5.28;;;1.50;99.90;;;;;;5073616;28;20033;-70
2021/01/10 01:57:20;;;;;;;11.05;5.30;;;1.50;99.90;;;;;;5076553;28;20028;-70
2021/01/10 01:59:46;;;;;;;7.78;5.22;;;1.60;99.90;;;;;;5082769;28;20032;-70
2021/01/10 02:02:12;;;;;;;9.70;4.63;;;1.60;99.90;;;;;;5084587;28;20042;-69
2021/01/10 02:05:05;;;;;;;8.70;4.50;;;1.60;99.90;;;;;;5087885;28;20020;-69
2021/01/10 02:07:59;;;;;;;10.60;4.15;;;1.60;99.90;;;;;;5092745;28;20064;-69
2021/01/10 02:10:29;;;;;;;4.63;3.65;;;1.60;99.90;;;;;;5073031;28;20032;-70
2021/01/10 02:13:00;;;;;;;5.75;3.70;;;1.60;99.90;;;;;;5085589;28;20469;-70
2021/01/10 02:15:31;;;;;;;6.07;3.70;;;1.50;99.90;;;;;;5092830;28;20028;-69
2021/01/10 02:17:57;;;;;;;10.05;4.72;;;1.50;99.90;;;;;;5092732;28;20024;-69
2021/01/10 02:20:30;;;;;;;9.60;3.60;;;1.60;99.90;;;;;;5092163;28;20062;-68
2021/01/10 02:23:00;;;;;;;4.97;3.17;;;1.60;99.90;;;;;;5093106;28;20085;-69
2021/01/10 02:25:26;;;;;;;5.80;2.95;;;1.60;99.90;;;;;;5092279;28;20444;-69
2021/01/10 02:27:52;;;;;;;5.65;3.40;;;1.60;99.90;;;;;;5083066;28;20032;-69
2021/01/10 02:30:20;;;;;;;5.78;3.60;;;1.70;99.90;;;;;;5087404;28;20075;-69
2021/01/10 02:32:50;;;;;;;7.18;3.65;;;1.70;99.90;;;;;;5092233;28;20031;-69
2021/01/10 02:35:16;;;;;;;5.47;3.90;;;1.80;99.90;;;;;;5091827;28;20082;-70
2021/01/10 02:37:48;;;;;;;11.02;4.82;;;1.80;99.90;;;;;;5092474;28;20047;-68
2021/01/10 02:40:23;;;;;;;6.70;3.40;;;1.90;99.90;;;;;;5092104;28;20115;-69
2021/01/10 02:42:58;;;;;;;4.90;3.20;;;1.90;99.90;;;;;;5092217;28;20032;-70
2021/01/10 02:45:25;;;;;;;4.93;3.30;;;1.90;99.90;;;;;;5091859;28;20025;-69
2021/01/10 02:47:51;;;;;;;6.40;3.67;;;1.80;99.90;;;;;;5092233;28;20032;-69
2021/01/10 02:50:17;;;;;;;5.10;3.28;;;1.80;99.90;;;;;;5091610;28;20476;-70
2021/01/10 02:52:49;;;;;;;5.85;3.65;;;1.80;99.90;;;;;;5092048;28;20027;-70
2021/01/10 02:55:16;;;;;;;7.03;3.25;;;1.70;99.90;;;;;;5091344;28;20020;-68
2021/01/10 02:57:53;;;;;;;7.28;3.55;;;1.70;99.90;;;;;;5092539;28;20040;-69
2021/01/10 03:00:21;;;;;;;4.80;3.58;;;1.70;99.90;;;;;;5092307;28;20098;-69
2021/01/10 03:02:47;;;;;;;5.57;3.67;;;1.70;99.90;;;;;;5077203;28;20047;-69
2021/01/10 03:05:13;;;;;;;5.68;4.20;;;1.60;99.90;;;;;;5092333;28;20024;-69
2021/01/10 03:07:41;;;;;;;8.93;4.97;;;1.50;99.90;;;;;;5092005;28;20051;-68
2021/01/10 03:10:09;;;;;;;13.13;5.38;;;1.50;99.90;;;;;;5085088;28;20027;-68
2021/01/10 03:12:35;;;;;;;6.40;4.78;;;1.40;99.90;;;;;;5071600;28;20033;-69
2021/01/10 03:15:02;;;;;;;15.48;5.97;;;1.40;99.90;;;;;;5071261;28;20440;-69
2021/01/10 03:17:35;;;;;;;7.13;5.10;;;1.30;99.90;;;;;;5070882;28;20381;-69
2021/01/10 03:20:01;;;;;;;6.35;5.38;;;1.20;99.90;;;;;;5071344;28;20031;-69
2021/01/10 03:22:28;;;;;;;10.20;5.05;;;1.20;99.90;;;;;;5072041;28;20081;-69
2021/01/10 03:24:54;;;;;;;12.98;6.28;;;1.10;99.90;;;;;;5071473;28;20048;-69
2021/01/10 03:27:19;;;;;;;9.07;5.40;;;1.00;99.90;;;;;;5071169;28;20084;-69
2021/01/10 03:29:45;;;;;;;8.05;5.32;;;1.00;99.90;;;;;;5071328;28;20072;-70
2021/01/10 03:32:11;;;;;;;8.88;5.32;;;1.00;99.90;;;;;;5071026;28;20020;-69
2021/01/10 03:34:36;;;;;;;11.48;4.82;;;0.90;99.90;;;;;;5071316;28;20028;-69
2021/01/10 03:37:02;;;;;;;9.77;5.68;;;0.90;99.90;;;;;;5071330;28;20501;-69
2021/01/10 03:39:28;;;;;;;8.77;4.85;;;0.90;99.90;;;;;;5071408;28;20457;-70
2021/01/10 03:41:53;;;;;;;8.18;5.18;;;0.90;99.90;;;;;;5071410;28;20039;-69
2021/01/10 03:44:19;;;;;;;9.95;5.07;;;0.90;99.90;;;;;;5070755;28;20046;-69
2021/01/10 03:46:44;;;;;;;10.73;5.22;;;0.90;99.90;;;;;;5071333;28;20029;-70
2021/01/10 03:49:10;;;;;;;9.30;5.43;;;0.90;99.90;;;;;;5070901;28;20013;-69
2021/01/10 03:51:35;;;;;;;7.95;5.13;;;0.90;99.90;;;;;;5070660;28;20028;-70
2021/01/10 03:54:01;;;;;;;10.60;5.13;;;0.90;99.90;;;;;;5071042;28;20024;-70
2021/01/10 03:56:26;;;;;;;12.48;6.28;;;0.90;99.90;;;;;;5070171;28;20341;-69
2021/01/10 03:58:52;;;;;;;13.88;6.40;;;0.90;99.90;;;;;;5070733;28;20099;-68
2021/01/10 04:01:17;;;;;;;7.90;4.90;;;0.90;99.90;;;;;;5070885;28;20494;-69
2021/01/10 04:03:43;;;;;;;8.13;5.63;;;0.90;99.90;;;;;;5080477;28;20549;-68
2021/01/10 04:06:08;;;;;;;9.88;5.50;;;0.80;99.90;;;;;;5090697;28;20115;-70
2021/01/10 04:08:34;;;;;;;9.80;5.82;;;0.90;99.90;;;;;;5091414;28;20020;-69
2021/01/10 04:11:00;;;;;;;7.28;5.07;;;0.90;99.90;;;;;;5091089;28;20023;-69
2021/01/10 04:13:25;;;;;;;10.90;5.63;;;0.90;99.90;;;;;;5090235;28;20020;-69
2021/01/10 04:15:51;;;;;;;12.52;5.40;;;0.90;99.90;;;;;;5091299;28;20031;-69
2021/01/10 04:18:16;;;;;;;15.18;6.72;;;0.90;99.90;;;;;;5090366;28;20012;-68
2021/01/10 04:20:42;;;;;;;12.90;5.00;;;0.90;99.90;;;;;;5090612;28;20079;-69
2021/01/10 04:23:07;;;;;;;7.60;5.03;;;0.90;99.90;;;;;;5090848;28;20058;-69
2021/01/10 04:25:33;;;;;;;7.97;5.22;;;0.90;99.90;;;;;;5090819;28;20381;-69
2021/01/10 04:27:58;;;;;;;9.30;5.30;;;0.90;99.90;;;;;;5090464;28;20038;-69
2021/01/10 04:30:24;;;;;;;8.98;5.85;;;0.90;99.90;;;;;;5090450;28;20040;-69
2021/01/10 04:32:50;;;;;;;7.80;4.93;;;1.00;99.90;;;;;;5090507;28;20098;-69
2021/01/10 04:35:16;;;;;;;7.88;5.90;;;0.90;99.90;;;;;;5089738;28;20415;-70
2021/01/10 04:37:41;;;;;;;10.00;5.38;;;0.90;99.90;;;;;;5090562;28;20024;-70
2021/01/10 04:40:07;;;;;;;10.27;6.32;;;1.00;99.90;;;;;;5090631;28;20378;-69
2021/01/10 04:42:34;;;;;;;14.82;7.00;;;1.00;99.90;;;;;;5090061;28;20063;-69
2021/01/10 04:44:59;;;;;;;8.77;5.93;;;1.00;99.90;;;;;;5090517;28;20030;-68
2021/01/10 04:47:25;;;;;;;8.27;5.85;;;1.10;99.90;;;;;;5090321;28;20024;-69
2021/01/10 04:49:52;;;;;;;11.82;6.30;;;1.10;99.90;;;;;;5090497;28;20020;-70
2021/01/10 04:52:20;;;;;;;10.57;5.50;;;1.20;99.90;;;;;;5090084;28;20032;-70
2021/01/10 04:54:46;;;;;;;11.35;5.60;;;1.20;99.90;;;;;;5090248;28;20135;-70
2021/01/10 04:57:12;;;;;;;9.82;6.07;;;1.20;99.90;;;;;;5090938;28;20032;-70
2021/01/10 04:59:42;;;;;;;12.50;6.20;;;1.20;99.90;;;;;;5090794;28;20024;-70
2021/01/10 05:02:09;;;;;;;9.85;5.90;;;1.30;99.90;;;;;;5079722;28;20033;-69
2021/01/10 05:04:35;;;;;;;7.53;5.60;;;1.30;99.90;;;;;;5086549;28;20567;-69
2021/01/10 05:07:01;;;;;;;8.23;5.88;;;1.40;99.90;;;;;;5092046;28;20046;-70
2021/01/10 05:09:27;;;;;;;9.23;5.60;;;1.40;99.90;;;;;;5093509;28;20126;-68
2021/01/10 05:11:53;;;;;;;8.15;5.07;;;1.40;99.90;;;;;;5094447;28;20077;-69
2021/01/10 05:14:18;;;;;;;12.02;6.60;;;1.40;99.90;;;;;;5094022;28;20024;-69
2021/01/10 05:16:44;;;;;;;5.88;4.75;;;1.40;99.90;;;;;;5093762;28;20058;-70
2021/01/10 05:19:10;;;;;;;9.38;4.78;;;1.50;99.90;;;;;;5094186;28;20464;-68
2021/01/10 05:21:40;;;;;;;6.43;4.15;;;1.50;99.90;;;;;;5093798;28;20040;-70
2021/01/10 05:24:05;;;;;;;6.20;4.68;;;1.40;99.90;;;;;;5093518;28;20046;-69
2021/01/10 05:26:41;;;;;;;5.63;4.47;;;1.30;99.90;;;;;;5093706;28;20072;-69
2021/01/10 05:29:08;;;;;;;7.32;5.45;;;1.30;99.90;;;;;;5093590;28;20083;-70
2021/01/10 05:31:41;;;;;;;7.15;4.45;;;1.30;99.90;;;;;;5093275;28;20257;-69
2021/01/10 05:34:14;;;;;;;8.85;5.00;;;1.30;99.90;;;;;;5094131;28;20031;-69
2021/01/10 05:36:40;;;;;;;4.97;4.13;;;1.30;99.90;;;;;;5093841;28;20032;-69
2021/01/10 05:39:25;;;;;;;7.10;4.38;;;1.30;99.90;;;;;;5093846;28;20016;-69
2021/01/10 05:42:01;;;;;;;6.85;4.65;;;1.30;99.90;;;;;;5093536;28;20101;-70
2021/01/10 05:44:49;;;;;;;9.23;6.05;;;1.30;99.90;;;;;;5093076;28;20476;-69
2021/01/10 05:47:16;;;;;;;12.07;5.57;;;1.30;99.90;;;;;;5092983;28;20024;-70
2021/01/10 05:49:53;;;;;;;13.10;6.07;;;1.40;99.90;;;;;;5093781;28;20020;-69
2021/01/10 05:52:19;;;;;;;10.15;6.00;;;1.40;99.90;;;;;;5092908;28;20028;-70
2021/01/10 05:54:50;;;;;;;6.45;5.68;;;1.40;99.90;;;;;;5093518;28;20111;-70
2021/01/10 05:57:25;;;;;;;5.78;4.60;;;1.40;99.90;;;;;;5093417;28;20025;-69
2021/01/10 05:59:52;;;;;;;10.95;6.07;;;1.40;99.90;;;;;;5093168;28;20059;-69
2021/01/10 06:02:37;;;;;;;5.43;4.32;;;1.30;99.90;;;;;;5076892;28;20050;-70
2021/01/10 06:05:20;;;;;;;5.80;4.32;;;1.30;99.90;;;;;;5079389;28;20032;-70
2021/01/10 06:07:47;;;;;;;8.48;4.40;;;1.30;99.90;;;;;;5093204;28;20138;-70
2021/01/10 06:10:27;;;;;;;9.57;4.10;;;1.30;99.90;;;;;;5093781;28;20016;-70
2021/01/10 06:13:06;;;;;;;6.32;4.65;;;1.20;99.90;;;;;;5093781;28;20111;-70
2021/01/10 06:15:33;;;;;;;6.10;4.13;;;1.10;99.90;;;;;;5093332;28;20109;-70
2021/01/10 06:18:04;;;;;;;5.30;4.80;;;1.10;99.90;;;;;;5092649;28;20054;-70
2021/01/10 06:20:30;;;;;;;10.20;4.50;;;1.00;99.90;;;;;;5092342;28;20032;-70
2021/01/10 06:23:02;;;;;;;6.00;4.45;;;1.00;99.90;;;;;;5092637;28;20036;-70
2021/01/10 06:25:32;;;;;;;6.50;5.03;;;0.90;99.90;;;;;;5093005;28;20103;-69
2021/01/10 06:28:02;;;;;;;6.18;5.15;;;0.90;99.90;;;;;;5072328;28;20062;-70
2021/01/10 06:30:33;;;;;;;7.30;5.25;;;0.90;99.90;;;;;;5071403;28;20051;-69
2021/01/10 06:33:02;;;;;;;;;;;0.80;99.90;;;;;;5072301;28;20063;-69
2021/01/10 06:35:34;;;;;;;6.15;4.95;;;0.80;99.90;;;;;;5074265;28;20324;-69
2021/01/10 06:38:00;;;;;;;6.88;5.72;;;0.80;99.90;;;;;;5071830;28;20096;-70
2021/01/10 06:40:34;;;;;;;6.75;5.18;;;0.80;99.90;;;;;;5070801;28;20063;-69
2021/01/10 06:43:02;;;;;;;10.95;5.40;;;0.80;99.90;;;;;;5074476;28;20036;-70
2021/01/10 06:45:38;;;;;;;8.40;6.00;;;1.30;99.90;;;;;;5071509;28;20040;-71
2021/01/10 06:48:04;;;;;;;10.82;6.18;;;0.90;99.90;;;;;;5074441;28;20040;-68
2021/01/10 06:50:31;;;;;;;12.85;5.78;;;0.90;99.90;;;;;;5073408;28;20024;-69
2021/01/10 06:53:02;;;;;;;7.65;5.38;;;1.00;99.90;;;;;;5074480;28;20034;-69
2021/01/10 06:55:28;;;;;;;10.93;6.28;;;1.00;99.90;;;;;;5071442;28;20108;-69
2021/01/10 06:57:54;;;;;;;11.05;5.65;;;1.00;99.90;;;;;;5071937;28;20055;-70
2021/01/10 07:00:20;;;;;;;11.77;5.15;;;1.00;99.90;;;;;;5072172;28;20063;-68
2021/01/10 07:03:06;;;;;;;7.28;4.88;;;1.10;99.90;;;;;;5072737;28;20551;-69
2021/01/10 07:06:06;;;;;;;8.15;5.30;;;1.10;99.90;;;;;;5077896;28;20043;-68
2021/01/10 07:08:50;;;;;;;5.68;4.88;;;1.30;99.90;;;;;;5071231;28;20024;-69
2021/01/10 07:11:22;;;;;;;12.13;5.82;;;1.30;99.90;;;;;;5072253;28;20030;-69
2021/01/10 07:13:57;;;;;;;9.68;4.82;;;1.40;99.90;;;;;;5072043;28;20035;-69
2021/01/10 07:16:24;;;;;;;7.43;4.20;;;1.40;99.90;;;;;;5071804;28;20039;-69
2021/01/10 07:18:55;;;;;;;11.43;4.68;;;1.40;99.90;;;;;;5072069;28;20036;-69
2021/01/10 07:21:34;;;;;;;12.93;4.65;;;1.50;99.90;;;;;;5070111;28;20518;-68
2021/01/10 07:24:26;;;;;;;7.63;4.30;;;1.50;99.90;;;;;;5071155;28;20051;-68
2021/01/10 07:26:51;;;;;;;7.55;4.70;;;1.50;99.90;;;;;;5071710;28;20535;-69
2021/01/10 07:29:41;;;;;;;8.93;4.07;;;1.50;99.90;;;;;;5070837;28;20132;-69
2021/01/10 07:32:14;;;;;;;9.48;4.65;;;1.60;99.90;;;;;;5071507;28;20059;-69
2021/01/10 07:34:46;;;;;;;4.88;3.22;;;1.60;99.90;;;;;;5071948;28;20074;-68
2021/01/10 07:37:29;;;;;;;5.90;4.40;;;1.60;99.90;;;;;;5071386;28;20030;-69
2021/01/10 07:39:55;;;;;;;6.43;4.18;;;1.60;99.90;;;;;;5071633;28;20101;-68
2021/01/10 07:42:27;;;;;;;9.93;4.10;;;1.60;99.90;;;;;;5076314;28;20391;-68
2021/01/10 07:44:55;;;;;;;9.30;4.40;;;1.60;99.90;;;;;;5072841;28;20468;-68
2021/01/10 07:47:35;;;;;;;7.00;4.05;;;1.60;99.90;;;;;;5070780;28;20025;-68
2021/01/10 07:50:18;;;;;;;8.18;4.10;;;1.60;99.90;;;;;;5071128;28;20074;-69
2021/01/10 07:52:49;;;;;;;8.00;4.22;;;1.60;99.90;;;;;;5071022;28;20066;-69
2021/01/10 07:55:20;;;;;;;11.88;4.85;;;1.60;99.90;;;;;;5070725;28;20036;-69
2021/01/10 07:57:51;;;;;;;8.73;4.13;;;1.60;99.90;;;;;;5070642;28;20020;-69
2021/01/10 08:00:24;;;;;;;7.72;5.70;;;1.70;99.90;;;;;;5070659;28;20113;-69
2021/01/10 08:03:17;;;;;;;10.55;3.97;;;1.70;99.90;;;;;;5073202;28;20114;-69
2021/01/10 08:05:57;;;;;;;8.02;4.60;;;1.70;99.90;;;;;;5090914;28;20436;-69
2021/01/10 08:08:42;;;;;;;5.95;4.63;;;1.70;99.90;;;;;;5090943;28;20016;-69
2021/01/10 08:11:08;;;;;;;12.70;4.75;;;1.70;99.90;;;;;;5091380;28;20053;-69
2021/01/10 08:13:40;;;;;;;6.55;4.60;;;1.70;99.90;;;;;;5090676;28;20115;-68
2021/01/10 08:16:10;;;;;;;14.55;5.38;;;1.70;99.90;;;;;;5091285;28;20379;-67
2021/01/10 08:18:39;;;;;;;11.80;5.45;;;1.70;99.90;;;;;;5090459;28;20051;-67
2021/01/10 08:21:10;;;;;;;11.05;5.13;;;1.60;99.90;;;;;;5083443;28;20058;-68
2021/01/10 08:23:36;;;;;;;8.48;4.78;;;1.70;99.90;;;;;;5087551;28;20448;-68
2021/01/10 08:26:12;;;;;;;6.95;4.68;;;1.70;99.90;;;;;;5086240;28;20028;-68
2021/01/10 08:28:55;;;;;;;11.88;5.63;;;1.70;99.90;;;;;;5089563;28;20069;-68
2021/01/10 08:31:26;;;;;;;17.13;6.55;;;1.80;99.90;;;;;;5084629;28;20164;-68
2021/01/10 08:34:06;;;;;;;13.07;5.85;;;1.90;99.90;;;;;;5086322;28;20021;-68
2021/01/10 08:36:33;;;;;;;18.58;6.15;;;1.90;99.90;;;;;;5086737;28;20058;-69
2021/01/10 08:39:01;;;;;;;10.40;5.97;;;2.00;99.90;;;;;;5088580;28;20329;-68
2021/01/10 08:41:47;;;;;;;8.30;5.20;;;2.00;99.90;;;;;;5083351;28;20073;-68
2021/01/10 08:44:20;;;;;;;9.68;4.85;;;2.00;99.90;;;;;;5074897;28;20020;-68
2021/01/10 08:46:51;;;;;;;7.22;4.88;;;2.10;99.90;;;;;;5074723;28;20032;-68
2021/01/10 08:49:17;;;;;;;5.55;4.32;;;2.10;99.90;;;;;;5074513;28;20043;-67
2021/01/10 08:51:43;;;;;;;5.07;4.28;;;2.20;99.90;;;;;;5074353;28;20029;-68
2021/01/10 08:54:10;;;;;;;11.73;5.18;;;2.20;99.90;;;;;;5074252;28;20566;-67
2021/01/10 08:56:37;;;;;;;6.93;4.20;;;2.20;99.90;;;;;;5074345;28;20118;-68
2021/01/10 08:59:03;;;;;;;8.93;3.97;;;2.20;99.90;;;;;;5074750;28;20028;-68
2021/01/10 09:01:29;;;;;;;6.03;3.95;;;2.20;99.90;;;;;;5079068;28;20077;-67
2021/01/10 09:03:55;;;;;;;7.95;4.05;;;2.20;99.90;;;;;;5095113;28;20020;-67
2021/01/10 09:06:24;;;;;;;16.70;4.10;;;2.20;99.90;;;;;;5094494;28;20016;-67
2021/01/10 09:08:56;;;;;;;7.27;3.90;;;2.20;99.90;;;;;;5094745;28;20024;-67
2021/01/10 09:11:25;;;;;;;11.80;4.40;;;2.20;99.90;;;;;;5094699;28;20097;-68
2021/01/10 09:13:54;;;;;;;9.77;5.55;;;2.30;99.90;;;;;;5095301;28;20039;-70
2021/01/10 09:16:22;;;;;;;6.68;4.30;;;2.30;99.90;;;;;;5094364;28;20026;-68
2021/01/10 09:18:48;;;;;;;9.02;3.97;;;2.40;99.90;;;;;;5094466;28;20059;-68
2021/01/10 09:21:15;;;;;;;11.45;4.55;;;2.50;99.90;;;;;;5094797;28;20036;-68
2021/01/10 09:23:49;;;;;;;7.80;3.20;;;2.60;99.90;;;;;;5094240;28;20031;-69
2021/01/10 09:26:24;;;;;;;8.68;4.13;;;2.70;99.90;;;;;;5094618;28;20036;-68
2021/01/10 09:28:49;;;;;;;6.47;3.95;;;2.80;99.90;;;;;;5080215;28;20038;-68
2021/01/10 09:31:15;;;;;;;5.80;4.20;;;2.80;99.90;;;;;;5094380;28;20016;-69
2021/01/10 09:33:40;;;;;;;4.93;3.40;;;2.90;99.90;;;;;;5094310;28;20035;-69
2021/01/10 09:36:08;;;;;;;5.30;3.30;;;2.80;99.90;;;;;;5093892;28;20102;-68
2021/01/10 09:38:33;;;;;;;8.35;3.95;;;2.80;99.90;;;;;;5094366;28;20119;-69
2021/01/10 09:41:19;;;;;;;7.35;3.65;;;2.80;99.90;;;;;;5094199;28;20103;-69
2021/01/10 09:43:50;;;;;;;5.35;4.03;;;2.70;99.90;;;;;;5082730;28;20033;-69
2021/01/10 09:46:38;;;;;;;8.73;3.92;;;2.70;99.90;;;;;;5086538;28;20016;-69
2021/01/10 09:49:04;;;;;;;7.80;4.32;;;2.70;99.90;;;;;;5088610;28;20051;-69
2021/01/10 09:51:37;;;;;;;8.07;4.30;;;2.70;99.90;;;;;;5087719;28;20302;-68
2021/01/10 09:54:16;;;;;;;7.30;4.22;;;2.60;99.90;;;;;;5080694;28;20028;-69
2021/01/10 09:56:41;;;;;;;9.15;4.85;;;2.70;99.90;;;;;;5072461;28;20388;-68
2021/01/10 09:59:35;;;;;;;10.98;4.65;;;2.70;99.90;;;;;;5073923;28;20031;-67
2021/01/10 10:02:16;;;;;;;9.20;5.07;;;2.80;99.90;;;;;;5073675;28;20029;-67
2021/01/10 10:04:45;;;;;;;9.20;5.00;;;2.90;99.90;;;;;;5090399;28;20031;-67
2021/01/10 10:07:11;;;;;;;13.18;5.18;;;3.00;99.90;;;;;;5094324;28;20032;-67
2021/01/10 10:09:46;;;;;;;8.32;5.10;;;3.10;99.90;;;;;;5093258;28;20028;-67
2021/01/10 10:12:12;;;;;;;7.78;4.57;;;3.20;99.90;;;;;;5093681;28;20052;-67
2021/01/10 10:14:38;;;;;;;13.00;4.88;;;3.20;99.90;;;;;;5093743;28;20020;-67
2021/01/10 10:17:04;;;;;;;12.40;4.97;;;3.30;99.90;;;;;;5093732;28;20020;-68
2021/01/10 10:19:29;;;;;;;12.82;5.07;;;3.40;99.90;;;;;;5093143;28;20032;-68
2021/01/10 10:21:55;;;;;;;14.57;6.90;;;3.50;99.90;;;;;;5093669;28;20085;-68
2021/01/10 10:24:21;;;;;;;12.20;6.70;;;3.60;99.90;;;;;;5095222;28;20020;-67
2021/01/10 10:26:46;;;;;;;9.43;5.38;;;3.60;99.90;;;;;;5093656;28;20054;-68
2021/01/10 10:29:12;;;;;;;9.43;6.43;;;3.70;99.90;;;;;;5093231;28;20140;-68
2021/01/10 10:31:37;;;;;;;9.02;5.22;;;3.70;99.90;;;;;;5093517;28;20035;-68
2021/01/10 10:34:03;;;;;;;10.60;5.10;;;3.80;99.90;;;;;;5093308;28;20051;-68
2021/01/10 10:36:28;;;;;;;12.95;5.78;;;3.90;99.90;;;;;;5094048;28;20031;-67
2021/01/10 10:38:54;;;;;;;9.15;5.78;;;4.00;99.90;;;;;;5094683;28;20065;-68
2021/01/10 10:41:20;;;;;;;5.93;4.55;;;4.00;99.90;;;;;;5094339;28;20492;-68
2021/01/10 10:43:45;;;;;;;8.23;5.05;;;4.10;99.90;;;;;;5094818;28;20054;-68
2021/01/10 10:46:11;;;;;;;11.82;5.07;;;4.10;99.90;;;;;;5094288;28;20084;-69
2021/01/10 10:48:37;;;;;;;15.55;5.18;;;4.20;99.90;;;;;;5093139;28;20051;-68
2021/01/10 10:51:02;;;;;;;8.13;5.00;;;4.30;99.90;;;;;;5091837;28;20024;-68
2021/01/10 10:53:28;;;;;;;10.23;5.43;;;4.30;99.90;;;;;;5091120;28;20365;-68
2021/01/10 10:55:53;;;;;;;7.78;4.97;;;4.50;99.90;;;;;;5091288;28;20062;-68
2021/01/10 10:58:19;;;;;;;10.48;4.97;;;4.50;99.90;;;;;;5091776;28;20437;-68
2021/01/10 11:00:45;;;;;;;8.73;5.07;;;4.60;99.90;;;;;;5091930;28;20020;-68
2021/01/10 11:03:10;;;;;;;8.38;5.05;;;4.70;99.90;;;;;;5087124;28;20480;-68
2021/01/10 11:05:36;;;;;;;10.02;5.28;;;4.70;99.90;;;;;;5091106;28;20012;-68
2021/01/10 11:08:02;;;;;;;11.40;5.38;;;4.90;99.90;;;;;;5088615;28;21331;-68
2021/01/10 11:10:27;;;;;;;5.85;5.00;;;4.90;99.90;;;;;;5081197;28;20105;-68
2021/01/10 11:12:53;;;;;;;6.82;4.70;;;5.10;99.90;;;;;;5088966;28;20070;-68
2021/01/10 11:15:18;;;;;;;7.68;4.65;;;5.10;99.90;;;;;;5084848;28;20012;-68
2021/01/10 11:17:44;;;;;;;6.05;4.93;;;5.20;99.90;;;;;;5089961;28;20387;-69
2021/01/10 11:20:09;;;;;;;8.35;4.60;;;5.30;99.90;;;;;;5090107;28;20095;-68
2021/01/10 11:22:35;;;;;;;8.93;4.55;;;5.30;99.90;;;;;;5090860;28;20314;-69
2021/01/10 11:25:08;;;;;;;8.55;4.40;;;5.40;99.90;;;;;;5073885;28;20362;-69
2021/01/10 11:27:34;;;;;;;8.27;4.75;;;5.40;99.90;;;;;;5089270;28;20032;-68
2021/01/10 11:29:59;;;;;;;9.43;4.82;;;5.40;99.90;;;;;;5095612;28;20407;-68
2021/01/10 11:32:25;;;;;;;6.20;4.90;;;5.50;99.90;;;;;;5093585;28;20117;-68
2021/01/10 11:34:50;;;;;;;5.63;4.70;;;5.50;99.90;;;;;;5092467;28;20048;-68
2021/01/10 11:37:16;;;;;;;9.27;5.90;;;5.50;99.90;;;;;;5091479;28;20028;-68
2021/01/10 11:39:42;;;;;;;5.38;4.47;;;5.60;99.90;;;;;;5091924;28;20020;-69
2021/01/10 11:42:08;;;;;;;7.32;5.38;;;5.60;99.90;;;;;;5092201;28;20036;-68
2021/01/10 11:44:34;;;;;;;9.18;5.25;;;5.70;99.90;;;;;;5091177;28;20510;-68
2021/01/10 11:47:00;;;;;;;6.65;5.53;;;5.70;99.90;;;;;;5092168;28;20024;-69
2021/01/10 11:49:28;;;;;;;6.15;5.07;;;5.80;99.90;;;;;;5092160;28;20024;-68
2021/01/10 11:51:55;;;;;;;5.55;4.40;;;5.80;99.90;;;;;;5092395;28;20035;-69
2021/01/10 11:54:20;;;;;;;9.98;5.00;;;5.80;99.90;;;;;;5092320;28;20034;-70
2021/01/10 11:56:47;;;;;;;8.93;4.75;;;5.80;99.90;;;;;;5091325;28;20024;-69
2021/01/10 11:59:14;;;;;;;6.20;4.32;;;5.70;99.90;;;;;;5091640;28;20023;-69
2021/01/10 12:01:40;;;;;;;8.02;4.47;;;5.70;99.90;;;;;;5085192;28;20029;-69
2021/01/10 12:04:06;;;;;;;9.65;4.57;;;5.70;99.90;;;;;;5071335;28;20021;-68
2021/01/10 12:06:34;;;;;;;4.60;3.97;;;5.70;99.90;;;;;;5091565;28;20467;-69
2021/01/10 12:08:59;;;;;;;5.80;3.75;;;5.80;99.90;;;;;;5091692;28;20028;-69
2021/01/10 12:11:25;;;;;;;6.90;4.00;;;5.80;99.90;;;;;;5091092;28;20020;-69
2021/01/10 12:13:51;;;;;;;7.50;4.15;;;5.90;99.90;;;;;;5091367;28;20088;-69
2021/01/10 12:16:19;;;;;;;5.85;4.22;;;6.00;99.90;;;;;;5089572;28;20024;-69
2021/01/10 12:18:45;;;;;;;5.85;4.93;;;6.00;99.90;;;;;;5091458;28;20067;-69
2021/01/10 12:21:12;;;;;;;7.55;4.45;;;6.00;99.90;;;;;;5091313;28;20035;-69
2021/01/10 12:23:38;;;;;;;6.13;4.35;;;6.00;99.90;;;;;;5091600;28;20501;-69
2021/01/10 12:26:12;;;;;;;8.23;4.18;;;6.00;99.90;;;;;;5091311;28;20053;-69
2021/01/10 12:28:38;;;;;;;7.25;4.30;;;6.00;99.90;;;;;;5091354;28;20111;-68
2021/01/10 12:31:05;;;;;;;6.93;4.07;;;5.90;99.90;;;;;;5076709;28;20021;-67
2021/01/10 12:33:35;;;;;;;4.97;4.25;;;5.90;99.90;;;;;;5069011;28;20422;-67
2021/01/10 12:36:02;;;;;;;8.90;4.45;;;5.80;99.90;;;;;;5070213;28;20078;-68
2021/01/10 12:38:28;;;;;;;4.93;3.63;;;5.80;99.90;;;;;;5072932;28;20476;-67
2021/01/10 12:40:54;;;;;;;6.43;4.82;;;5.70;99.90;;;;;;5082391;28;20027;-67
2021/01/10 12:43:19;;;;;;;7.88;4.88;;;5.60;99.90;;;;;;5072173;28;20032;-67
2021/01/10 12:45:46;;;;;;;9.10;5.13;;;5.60;99.90;;;;;;5070947;28;20016;-70
2021/01/10 12:48:12;;;;;;;10.40;5.85;;;5.60;99.90;;;;;;5071368;28;20031;-68
2021/01/10 12:50:38;;;;;;;5.88;4.50;;;5.50;99.90;;;;;;5071618;28;20025;-69
2021/01/10 12:53:04;;;;;;;5.45;4.60;;;5.60;99.90;;;;;;5070741;28;20032;-69
2021/01/10 12:55:29;;;;;;;8.10;4.50;;;5.60;99.90;;;;;;5070665;28;20019;-68
2021/01/10 12:57:55;;;;;;;6.10;4.28;;;5.60;99.90;;;;;;5070773;28;20028;-69
2021/01/10 13:00:20;;;;;;;5.88;4.85;;;5.60;99.90;;;;;;5069969;28;20020;-69